Terminal Aerodrome Forecast
Issued by NWS

Home | Current Version | Previous Version | Text Only | Print | Product List | Glossary On
Versions: 1 2 3 4 5 6 7 8 9 10 11 12 13 14 15 16
000
FTUS41 KBTV 230500
TAFMPV
TAF
KMPV 230520Z 2306/2406 19006KT P6SM SKC
     FM231200 20007KT P6SM SCT100
     FM231600 22010G20KT P6SM VCSH BKN040 OVC080
     FM240000 31010KT P6SM SCT025 BKN080=

USA.gov is the U.S. government's official web portal to all federal, state and local government web resources and services.